Saint-Agapit, Canada
Current Conditions -  °F | °C
As of 4:05 AM on Thursday 18 Dec 2014 (Local Time) from CYQB Reporting Station
Light Snow Light Snow  
Wind Chill: 24°   Ceiling: 800
Heat Index: 30°   Visibility: 1mi
Dew Point: 28°   Wind: 6mph
Humidity: 93%   Direction: 70°ENE
Pressure: 29.74"   Gusts: NA
Location:  46.57°N, 71.43°W
Report Text: CYQB 180905Z 07005KT 1SM R06/P6000FT/U -SN SCT005 OVC008 OVC021 M01/M02 A2974 RMK SN3SF1SF5SC1 SF TR SC TR SLP073
Loading
Personal Weather Stations






























Interactive Weather Map New forecast layout! Learn more

10-Day Weather Forecast

Advertisements
Track Severe Weather on mobile